Time;durP1;ratioP1;P1;durP2;ratioP2;P2;SDS_P1;SDS_P2;PMS_P1;PMS_P2;Temp;Humidity;BMP_temperature;BMP_pressure;BME280_temperature;BME280_humidity;BME280_pressure;Samples;Min_cycle;Max_cycle;Signal;HPM_P1;HPM_P2
2022/01/16 00:00:26;;;;;;;55.65;21.63;;;2.30;99.90;;;;;;6251224;22;20020;-78
2022/01/16 00:05:31;;;;;;;54.85;22.13;;;2.30;99.90;;;;;;6278868;22;20494;-78
2022/01/16 00:07:57;;;;;;;52.08;20.20;;;2.40;99.90;;;;;;6251410;22;20032;-78
2022/01/16 00:10:25;;;;;;;52.33;19.92;;;2.40;99.90;;;;;;6251244;22;20122;-78
2022/01/16 00:12:52;;;;;;;55.55;22.83;;;2.40;99.90;;;;;;6251264;22;20052;-78
2022/01/16 00:15:22;;;;;;;54.63;21.30;;;2.30;99.90;;;;;;6251210;22;20051;-78
2022/01/16 00:18:19;;;;;;;50.28;20.70;;;2.30;99.90;;;;;;6251120;22;20022;-78
2022/01/16 00:20:35;;;;;;;55.55;22.10;;;2.30;99.90;;;;;;6277462;22;20016;-78
2022/01/16 00:23:05;;;;;;;44.47;18.17;;;2.30;99.90;;;;;;6251112;22;20367;-78
2022/01/16 00:25:30;;;;;;;49.45;20.73;;;2.30;99.90;;;;;;6251213;22;20091;-78
2022/01/16 00:27:56;;;;;;;54.50;21.38;;;2.40;99.90;;;;;;6278718;22;20074;-78
2022/01/16 00:30:22;;;;;;;50.80;20.77;;;2.40;99.90;;;;;;6251132;22;20355;-78
2022/01/16 00:32:48;;;;;;;57.80;20.75;;;2.30;99.90;;;;;;6278016;22;20027;-78
2022/01/16 00:35:14;;;;;;;51.03;20.80;;;2.30;99.90;;;;;;6251060;22;20018;-80
2022/01/16 00:37:41;;;;;;;56.25;22.60;;;2.30;99.90;;;;;;6278340;22;20012;-80
2022/01/16 00:40:08;;;;;;;54.38;21.33;;;2.40;99.90;;;;;;6278370;22;20026;-79
2022/01/16 00:42:34;;;;;;;52.00;20.75;;;2.30;99.90;;;;;;6278365;22;20066;-79
2022/01/16 00:45:00;;;;;;;51.15;20.75;;;2.30;99.90;;;;;;6250882;22;20019;-80
2022/01/16 00:47:25;;;;;;;47.92;20.60;;;2.30;99.90;;;;;;6251019;22;20229;-80
2022/01/16 00:49:51;;;;;;;56.08;23.15;;;2.30;99.90;;;;;;6250936;22;20019;-80
2022/01/16 00:52:17;;;;;;;53.80;20.52;;;2.30;99.90;;;;;;6250889;22;20015;-80
2022/01/16 00:54:42;;;;;;;49.40;20.33;;;2.30;99.90;;;;;;6250526;22;20030;-80
2022/01/16 00:57:08;;;;;;;53.40;21.20;;;2.30;99.90;;;;;;6250585;22;20023;-80
2022/01/16 00:59:34;;;;;;;53.30;22.58;;;2.30;99.90;;;;;;6250620;22;20023;-80
2022/01/16 01:02:00;;;;;;;56.38;22.33;;;2.30;99.90;;;;;;6250731;22;20380;-79
2022/01/16 01:04:26;;;;;;;58.42;21.98;;;2.20;99.90;;;;;;6278161;22;20035;-78
2022/01/16 01:06:52;;;;;;;57.33;22.67;;;2.20;99.90;;;;;;6278162;22;20362;-78
2022/01/16 01:09:18;;;;;;;54.58;21.77;;;2.20;99.90;;;;;;6278100;22;20008;-78
2022/01/16 01:11:46;;;;;;;56.60;23.13;;;2.10;99.90;;;;;;6250664;22;20023;-79
2022/01/16 01:17:00;;;;;;;59.53;21.67;;;2.10;99.90;;;;;;6251037;22;20095;-80
2022/01/16 01:19:34;;;;;;;56.17;22.40;;;2.10;99.90;;;;;;6250543;22;20027;-79
2022/01/16 01:22:04;;;;;;;62.70;25.73;;;2.10;99.90;;;;;;6250572;22;20031;-80
2022/01/16 01:24:32;;;;;;;65.53;24.98;;;2.10;99.90;;;;;;6277656;22;20020;-80
2022/01/16 01:29:36;;;;;;;75.70;27.10;;;2.20;99.90;;;;;;6277969;22;20074;-80
2022/01/16 01:32:02;;;;;;;68.45;26.20;;;2.20;99.90;;;;;;6250414;22;20016;-80
2022/01/16 01:34:28;;;;;;;71.05;27.00;;;2.20;99.90;;;;;;6250452;22;20089;-80
2022/01/16 01:36:54;;;;;;;75.57;26.70;;;2.10;99.90;;;;;;6277319;22;20374;-80
2022/01/16 01:39:21;;;;;;;72.82;25.05;;;2.20;99.90;;;;;;6250297;22;20027;-80
2022/01/16 01:41:50;;;;;;;76.97;26.33;;;2.20;99.90;;;;;;6277403;22;20386;-80
2022/01/16 01:52:31;;;;;;;73.40;25.30;;;2.20;99.90;;;;;;6250217;22;20022;-79
2022/01/16 01:54:56;;;;;;;71.63;28.10;;;2.20;99.90;;;;;;6277666;22;20015;-79
2022/01/16 01:57:22;;;;;;;72.15;28.00;;;2.20;99.90;;;;;;6277045;22;20440;-79
2022/01/16 01:59:48;;;;;;;80.32;29.10;;;2.20;99.90;;;;;;6277274;22;20091;-79
2022/01/16 02:02:14;;;;;;;74.78;26.38;;;2.20;99.90;;;;;;6277660;22;20008;-80
2022/01/16 02:04:39;;;;;;;79.97;27.52;;;2.20;99.90;;;;;;6250226;22;20024;-80
2022/01/16 02:07:05;;;;;;;95.78;33.35;;;2.20;99.90;;;;;;6250167;22;20019;-79
2022/01/16 02:09:32;;;;;;;82.22;29.33;;;2.10;99.90;;;;;;6278211;22;20016;-79
2022/01/16 02:11:58;;;;;;;95.60;29.65;;;2.20;99.90;;;;;;6277509;22;20037;-79
2022/01/16 02:14:35;;;;;;;95.35;30.85;;;2.10;99.90;;;;;;6249957;22;20039;-79
2022/01/16 02:28:22;;;;;;;83.20;28.10;;;2.20;99.90;;;;;;6277364;22;20042;-79
2022/01/16 02:36:27;;;;;;;98.38;30.05;;;2.20;99.90;;;;;;6249994;22;20054;-80
2022/01/16 02:39:00;;;;;;;99.18;30.90;;;2.20;99.90;;;;;;6249919;22;20030;-80
2022/01/16 02:41:26;;;;;;;86.45;31.58;;;2.20;99.90;;;;;;6277407;22;20008;-80
2022/01/16 02:43:55;;;;;;;91.20;30.10;;;2.30;99.90;;;;;;6276938;22;20456;-81
2022/01/16 02:48:54;;;;;;;88.40;28.40;;;2.30;99.90;;;;;;6277065;22;20423;-77
2022/01/16 02:51:23;;;;;;;116.15;34.50;;;2.30;99.90;;;;;;6277309;22;20034;-77
2022/01/16 02:53:50;;;;;;;93.57;33.15;;;2.30;99.90;;;;;;6276851;22;20347;-77
2022/01/16 02:56:17;;;;;;;107.45;33.17;;;2.30;99.90;;;;;;6277902;22;20012;-79
2022/01/16 02:58:44;;;;;;;103.20;30.65;;;2.30;99.90;;;;;;6251430;22;20440;-79
2022/01/16 03:01:10;;;;;;;90.30;29.83;;;2.40;99.90;;;;;;6251961;22;20093;-79
2022/01/16 03:03:36;;;;;;;85.28;27.25;;;2.40;99.90;;;;;;6278977;22;20020;-79
2022/01/16 03:06:02;;;;;;;102.63;30.90;;;2.40;99.90;;;;;;6251776;22;20027;-79
2022/01/16 03:08:28;;;;;;;100.22;30.63;;;2.40;99.90;;;;;;6251807;22;20073;-79
2022/01/16 03:13:33;;;;;;;113.28;33.17;;;2.50;99.90;;;;;;6279214;22;20019;-79
2022/01/16 03:15:59;;;;;;;114.57;34.97;;;2.50;99.90;;;;;;6251770;22;20016;-80
2022/01/16 03:23:35;;;;;;;128.63;35.65;;;2.60;99.90;;;;;;6251652;22;20050;-80
2022/01/16 03:26:00;;;;;;;99.03;31.10;;;2.60;99.90;;;;;;6251747;22;20020;-80
2022/01/16 03:28:26;;;;;;;130.10;37.97;;;2.70;99.90;;;;;;6251615;22;20016;-80
2022/01/16 03:30:54;;;;;;;111.38;35.20;;;2.70;99.90;;;;;;6251651;22;20046;-80
2022/01/16 03:33:21;;;;;;;111.50;34.88;;;2.70;99.90;;;;;;6252817;22;20015;-80
2022/01/16 03:35:48;;;;;;;133.20;38.53;;;2.60;99.90;;;;;;6278693;22;20019;-79
2022/01/16 03:38:15;;;;;;;115.78;34.72;;;2.70;99.90;;;;;;6251536;22;20020;-80
2022/01/16 03:40:40;;;;;;;118.90;34.50;;;2.70;99.90;;;;;;6251852;22;20018;-80
2022/01/16 03:43:14;;;;;;;136.10;36.75;;;2.70;99.90;;;;;;6278661;22;20051;-79
2022/01/16 03:45:46;;;;;;;132.32;35.92;;;2.80;99.90;;;;;;6251472;22;20122;-79
2022/01/16 03:48:14;;;;;;;106.47;35.33;;;2.80;99.90;;;;;;6278634;22;20460;-80
2022/01/16 03:50:40;;;;;;;127.82;37.88;;;2.80;99.90;;;;;;6278558;22;20023;-80
2022/01/16 03:53:06;;;;;;;129.68;37.03;;;2.80;99.90;;;;;;6251427;22;20077;-80
2022/01/16 03:55:33;;;;;;;123.57;32.35;;;2.80;99.90;;;;;;6251371;22;20098;-80
2022/01/16 03:57:58;;;;;;;131.77;36.67;;;2.80;99.90;;;;;;6250937;22;20076;-80
2022/01/16 04:00:25;;;;;;;140.30;36.25;;;2.80;99.90;;;;;;6278819;22;20023;-80
2022/01/16 04:02:50;;;;;;;130.68;35.65;;;2.90;99.90;;;;;;6278450;22;20012;-80
2022/01/16 04:05:16;;;;;;;113.18;32.42;;;2.90;99.90;;;;;;6251379;22;20023;-80
2022/01/16 04:07:42;;;;;;;151.65;40.83;;;2.90;99.90;;;;;;6278133;22;20023;-80
2022/01/16 04:10:09;;;;;;;130.75;35.40;;;2.90;99.90;;;;;;6278711;22;20454;-80
2022/01/16 04:12:37;;;;;;;122.25;33.53;;;3.00;99.90;;;;;;6251259;22;20102;-80
2022/01/16 04:17:42;;;;;;;141.43;36.60;;;2.90;99.90;;;;;;6278365;22;20351;-80
2022/01/16 04:20:08;;;;;;;137.43;38.85;;;3.00;99.90;;;;;;6251170;22;20019;-80
2022/01/16 04:22:34;;;;;;;138.68;37.03;;;3.00;99.90;;;;;;6278228;22;20016;-80
2022/01/16 04:24:59;;;;;;;151.23;39.15;;;3.00;99.90;;;;;;6251201;22;20530;-79
2022/01/16 04:27:25;;;;;;;145.35;37.95;;;3.00;99.90;;;;;;6251158;22;20020;-77
2022/01/16 04:29:51;;;;;;;133.23;35.83;;;3.00;99.90;;;;;;6278502;22;20344;-78
2022/01/16 04:32:16;;;;;;;139.82;37.70;;;3.10;99.90;;;;;;6278502;22;20023;-77
2022/01/16 04:34:42;;;;;;;151.45;38.47;;;3.10;99.90;;;;;;6250658;22;20015;-78
2022/01/16 04:37:08;;;;;;;151.13;37.03;;;3.10;99.90;;;;;;6251084;22;20030;-77
2022/01/16 04:39:36;;;;;;;159.20;42.92;;;3.10;99.90;;;;;;6251172;22;20024;-78
2022/01/16 04:44:49;;;;;;;141.82;39.58;;;3.10;99.90;;;;;;6250928;22;20024;-78
2022/01/16 04:47:15;;;;;;;139.25;41.67;;;3.20;99.90;;;;;;6277919;22;20016;-77
2022/01/16 04:49:41;;;;;;;138.95;40.08;;;3.20;99.90;;;;;;6250840;22;20071;-77
2022/01/16 04:52:07;;;;;;;135.77;38.30;;;3.20;99.90;;;;;;6250765;22;20343;-77
2022/01/16 04:54:33;;;;;;;145.23;39.55;;;3.20;99.90;;;;;;6250917;22;20043;-78
2022/01/16 04:56:59;;;;;;;147.77;39.08;;;3.20;99.90;;;;;;6250508;22;20444;-78
2022/01/16 04:59:25;;;;;;;146.20;37.40;;;3.30;99.90;;;;;;6250606;22;20477;-78
2022/01/16 05:01:51;;;;;;;135.32;39.30;;;3.20;99.90;;;;;;6250788;22;20016;-77
2022/01/16 05:04:17;;;;;;;142.55;38.75;;;3.30;99.90;;;;;;6250675;22;20435;-77
2022/01/16 05:06:43;;;;;;;137.63;39.08;;;3.30;99.90;;;;;;6277692;22;20451;-77
2022/01/16 05:09:08;;;;;;;148.98;40.70;;;3.30;99.90;;;;;;6250685;22;20073;-78
2022/01/16 05:11:34;;;;;;;134.02;36.38;;;3.30;99.90;;;;;;6277621;22;20008;-78
2022/01/16 05:16:37;;;;;;;132.10;39.33;;;3.30;99.90;;;;;;6250615;22;20016;-78
2022/01/16 05:19:11;;;;;;;144.63;39.55;;;3.30;99.90;;;;;;6250030;22;20508;-78
2022/01/16 05:21:38;;;;;;;136.63;37.65;;;3.40;99.90;;;;;;6277821;22;20023;-78
2022/01/16 05:24:09;;;;;;;126.20;39.70;;;3.30;99.90;;;;;;6250500;22;20058;-78
2022/01/16 05:26:39;;;;;;;132.80;38.42;;;3.40;99.90;;;;;;6250621;22;20039;-78
2022/01/16 05:29:05;;;;;;;132.52;37.30;;;3.40;99.90;;;;;;6250543;22;20023;-78
2022/01/16 05:31:31;;;;;;;147.13;37.85;;;3.40;99.90;;;;;;6250522;22;20012;-78
2022/01/16 05:33:57;;;;;;;158.63;43.15;;;3.40;99.90;;;;;;6250440;22;20024;-78
2022/01/16 05:36:23;;;;;;;158.50;42.92;;;3.40;99.90;;;;;;6250396;22;20049;-78
2022/01/16 05:38:49;;;;;;;146.23;39.92;;;3.50;99.90;;;;;;6250800;22;20038;-78
2022/01/16 05:41:18;;;;;;;155.07;40.38;;;3.50;99.90;;;;;;6250370;22;20016;-78
2022/01/16 05:43:47;;;;;;;149.85;37.20;;;3.50;99.90;;;;;;6250375;22;20024;-77
2022/01/16 05:46:14;;;;;;;144.52;40.20;;;3.50;99.90;;;;;;6250208;22;20015;-78
2022/01/16 05:48:40;;;;;;;148.82;42.63;;;3.60;99.90;;;;;;6250281;22;20343;-78
2022/01/16 05:51:06;;;;;;;151.57;42.38;;;3.60;99.90;;;;;;6250248;22;20016;-78
2022/01/16 05:53:31;;;;;;;141.48;40.38;;;3.60;99.90;;;;;;6250206;22;20027;-78
2022/01/16 05:55:57;;;;;;;153.73;41.28;;;3.60;99.90;;;;;;6250333;22;20019;-77
2022/01/16 05:58:23;;;;;;;168.85;43.08;;;3.60;99.90;;;;;;6277111;22;20016;-78
2022/01/16 06:00:48;;;;;;;143.15;40.80;;;3.60;99.90;;;;;;6277589;22;20026;-78
2022/01/16 06:03:14;;;;;;;162.20;45.50;;;3.60;99.90;;;;;;6250226;22;20334;-78
2022/01/16 06:05:40;;;;;;;145.55;41.08;;;3.70;99.90;;;;;;6249866;22;20020;-78
2022/01/16 06:08:09;;;;;;;144.65;43.50;;;3.70;99.90;;;;;;6250127;22;20039;-78
2022/01/16 06:10:35;;;;;;;149.32;39.50;;;3.70;99.90;;;;;;6250137;22;20055;-78
2022/01/16 06:13:02;;;;;;;147.18;42.72;;;3.70;99.90;;;;;;6250156;22;20016;-78
2022/01/16 06:15:28;;;;;;;161.85;46.03;;;3.70;99.90;;;;;;6250111;22;20023;-78
2022/01/16 06:17:53;;;;;;;163.43;46.40;;;3.80;99.90;;;;;;6249521;22;20023;-77
2022/01/16 06:20:19;;;;;;;150.18;41.22;;;3.80;99.90;;;;;;6250060;22;20023;-77
2022/01/16 06:22:45;;;;;;;156.45;42.90;;;3.80;99.90;;;;;;6250039;22;20011;-78
2022/01/16 06:25:12;;;;;;;146.90;40.65;;;3.90;99.90;;;;;;6249979;22;20026;-77
2022/01/16 06:27:38;;;;;;;162.07;46.40;;;3.90;99.90;;;;;;6277122;22;20027;-77
2022/01/16 06:30:05;;;;;;;155.15;44.83;;;3.90;99.90;;;;;;6249791;22;20012;-77
2022/01/16 06:32:31;;;;;;;155.48;47.30;;;4.00;99.90;;;;;;6250043;22;20016;-77
2022/01/16 06:34:56;;;;;;;157.93;45.67;;;3.90;99.90;;;;;;6249887;22;20362;-77
2022/01/16 06:37:22;;;;;;;153.25;46.83;;;4.00;99.90;;;;;;6249958;22;20444;-77
2022/01/16 06:39:48;;;;;;;162.52;48.40;;;4.00;99.90;;;;;;6249834;22;20022;-77
2022/01/16 06:42:13;;;;;;;146.95;43.88;;;4.00;99.90;;;;;;6249672;22;20054;-78
2022/01/16 06:44:39;;;;;;;150.48;45.33;;;4.00;99.90;;;;;;6249890;22;20077;-78
2022/01/16 06:47:05;;;;;;;145.00;45.72;;;4.10;99.90;;;;;;6277009;22;20027;-78
2022/01/16 06:49:30;;;;;;;146.13;45.33;;;4.10;99.90;;;;;;6277213;22;20012;-78
2022/01/16 06:51:56;;;;;;;151.63;45.90;;;4.10;99.90;;;;;;6277308;22;20011;-78
2022/01/16 06:54:22;;;;;;;138.60;43.97;;;4.10;99.90;;;;;;6277305;22;20008;-78
2022/01/16 06:56:47;;;;;;;159.40;46.20;;;4.10;99.90;;;;;;6277252;22;20089;-78
2022/01/16 06:59:13;;;;;;;144.55;46.67;;;4.20;99.90;;;;;;6276560;22;20389;-77
2022/01/16 07:01:39;;;;;;;141.85;45.03;;;4.20;99.90;;;;;;6249783;22;20015;-77
2022/01/16 07:04:04;;;;;;;129.98;41.97;;;4.20;99.90;;;;;;6249767;22;20301;-77
2022/01/16 07:06:30;;;;;;;130.38;40.65;;;4.20;99.90;;;;;;6249780;22;20019;-78
2022/01/16 07:08:55;;;;;;;122.65;41.20;;;4.20;99.90;;;;;;6249819;22;20024;-77
2022/01/16 07:11:21;;;;;;;114.32;40.67;;;4.20;99.90;;;;;;6249829;22;20016;-78
2022/01/16 07:13:47;;;;;;;112.28;40.83;;;4.20;99.90;;;;;;6249681;22;20016;-78
2022/01/16 07:16:12;;;;;;;120.97;39.83;;;4.30;99.90;;;;;;6276770;22;20051;-77
2022/01/16 07:18:38;;;;;;;116.57;40.63;;;4.30;99.90;;;;;;6277071;22;20523;-78
2022/01/16 07:21:12;;;;;;;108.22;39.13;;;4.30;99.90;;;;;;6249848;22;20022;-78
2022/01/16 07:23:45;;;;;;;97.55;38.20;;;4.30;99.90;;;;;;6249775;22;20031;-78
2022/01/16 07:26:11;;;;;;;106.20;36.63;;;4.40;99.90;;;;;;6249738;22;20095;-77
2022/01/16 07:28:37;;;;;;;90.25;35.55;;;4.30;99.90;;;;;;6277102;22;20016;-78
2022/01/16 07:31:03;;;;;;;92.20;35.78;;;4.40;99.90;;;;;;6277657;22;20066;-78
2022/01/16 07:33:29;;;;;;;86.10;33.65;;;4.40;99.90;;;;;;6277108;22;20015;-78
2022/01/16 07:35:55;;;;;;;79.78;32.38;;;4.40;99.90;;;;;;6249774;22;20565;-77
2022/01/16 07:38:21;;;;;;;79.68;32.25;;;4.40;99.90;;;;;;6249939;22;20336;-77
2022/01/16 07:40:46;;;;;;;73.95;30.08;;;4.40;99.90;;;;;;6249370;22;20436;-77
2022/01/16 07:43:13;;;;;;;61.38;26.17;;;4.40;99.90;;;;;;6250380;22;20066;-77
2022/01/16 07:45:39;;;;;;;66.45;26.42;;;4.40;99.90;;;;;;6249863;22;20019;-78
2022/01/16 07:48:07;;;;;;;58.63;24.92;;;4.40;99.90;;;;;;6276813;22;20016;-78
2022/01/16 07:50:33;;;;;;;59.00;25.45;;;4.40;99.90;;;;;;6249623;22;20454;-78
2022/01/16 07:52:59;;;;;;;69.57;26.88;;;4.40;99.90;;;;;;6277242;22;20019;-78
2022/01/16 07:55:26;;;;;;;60.55;24.83;;;4.50;99.90;;;;;;6250274;22;20024;-78
2022/01/16 07:57:56;;;;;;;63.53;24.90;;;4.40;99.90;;;;;;6249196;22;20039;-78
2022/01/16 08:00:23;;;;;;;58.83;24.85;;;4.40;99.90;;;;;;6250698;22;20050;-77
2022/01/16 08:02:49;;;;;;;56.78;25.00;;;4.50;99.90;;;;;;6251279;22;20069;-78
2022/01/16 08:05:16;;;;;;;55.13;24.25;;;4.50;99.90;;;;;;6251119;22;20094;-78
2022/01/16 08:07:42;;;;;;;52.60;24.00;;;4.50;99.90;;;;;;6251629;22;20027;-78
2022/01/16 08:10:08;;;;;;;54.72;23.80;;;4.50;99.90;;;;;;6250907;22;20141;-78
2022/01/16 08:12:34;;;;;;;51.53;23.20;;;4.50;99.90;;;;;;6251271;22;20042;-78
2022/01/16 08:15:00;;;;;;;54.05;23.23;;;4.60;99.90;;;;;;6251160;22;20342;-78
2022/01/16 08:17:26;;;;;;;55.65;24.02;;;4.60;99.90;;;;;;6251000;22;20340;-78
2022/01/16 08:19:51;;;;;;;52.50;24.58;;;4.60;99.90;;;;;;6251041;22;20443;-78
2022/01/16 08:22:17;;;;;;;50.65;23.20;;;4.60;99.90;;;;;;6251192;22;20026;-77
2022/01/16 08:24:43;;;;;;;53.17;24.23;;;4.60;99.90;;;;;;6251033;22;20047;-76
2022/01/16 08:27:08;;;;;;;50.85;24.52;;;4.70;99.90;;;;;;6278457;22;20022;-77
2022/01/16 08:29:34;;;;;;;57.20;23.50;;;4.70;99.90;;;;;;6250873;22;20020;-77
2022/01/16 08:32:00;;;;;;;60.92;24.55;;;4.70;99.90;;;;;;6250907;22;20090;-76
2022/01/16 08:34:25;;;;;;;50.33;22.50;;;4.70;99.90;;;;;;6277396;22;20057;-76
2022/01/16 08:36:51;;;;;;;47.88;23.55;;;4.70;99.90;;;;;;6250523;22;20031;-76
2022/01/16 08:39:17;;;;;;;48.40;22.27;;;4.70;99.90;;;;;;6277909;22;20039;-76
2022/01/16 08:41:42;;;;;;;47.97;22.50;;;4.70;99.90;;;;;;6250534;22;20043;-76
2022/01/16 08:44:08;;;;;;;47.38;21.98;;;4.70;99.90;;;;;;6250984;22;20026;-76
2022/01/16 08:46:34;;;;;;;47.50;22.23;;;4.70;99.90;;;;;;6277985;22;20018;-76
2022/01/16 08:49:01;;;;;;;50.60;23.90;;;4.80;99.90;;;;;;6277510;22;20347;-76
2022/01/16 08:51:27;;;;;;;51.95;22.45;;;4.80;99.90;;;;;;6250500;22;20015;-76
2022/01/16 08:53:53;;;;;;;49.33;21.98;;;4.80;99.90;;;;;;6277876;22;20107;-76
2022/01/16 08:56:20;;;;;;;46.17;21.70;;;4.80;99.90;;;;;;6250282;22;20061;-76
2022/01/16 08:58:46;;;;;;;46.20;21.75;;;4.80;99.90;;;;;;6250118;22;20492;-76
2022/01/16 09:01:11;;;;;;;52.88;23.08;;;4.90;99.90;;;;;;6250823;22;20020;-77
2022/01/16 09:03:38;;;;;;;51.85;23.17;;;4.90;99.90;;;;;;6250564;22;20039;-76
2022/01/16 09:06:04;;;;;;;42.67;20.75;;;5.00;99.90;;;;;;6277404;22;20459;-77
2022/01/16 09:08:30;;;;;;;52.75;23.98;;;5.00;99.90;;;;;;6250229;22;20007;-77
2022/01/16 09:10:56;;;;;;;52.88;22.15;;;5.00;99.90;;;;;;6277484;22;20020;-78
2022/01/16 09:13:22;;;;;;;40.08;19.40;;;5.10;99.90;;;;;;6250326;22;20065;-78
2022/01/16 09:15:49;;;;;;;41.83;20.77;;;5.10;99.90;;;;;;6250338;22;20023;-78
2022/01/16 09:18:16;;;;;;;48.97;21.40;;;5.10;99.90;;;;;;6250079;22;20015;-77
2022/01/16 09:20:42;;;;;;;42.50;20.08;;;5.20;99.90;;;;;;6277673;22;20027;-77
2022/01/16 09:23:09;;;;;;;51.28;19.92;;;5.10;99.90;;;;;;6250138;22;20020;-77
2022/01/16 09:25:35;;;;;;;57.42;21.92;;;5.20;99.90;;;;;;6250222;22;20016;-77
2022/01/16 09:28:02;;;;;;;50.78;21.58;;;5.20;99.90;;;;;;6250172;22;20012;-77
2022/01/16 09:30:28;;;;;;;48.10;21.27;;;5.30;99.90;;;;;;6250258;22;20469;-78
2022/01/16 09:32:54;;;;;;;51.78;22.23;;;5.30;99.90;;;;;;6250061;22;20019;-77
2022/01/16 09:35:20;;;;;;;47.58;20.75;;;5.30;99.90;;;;;;6248759;22;20022;-77
2022/01/16 09:37:46;;;;;;;46.42;22.75;;;5.30;99.90;;;;;;6249949;22;20016;-76
2022/01/16 09:40:15;;;;;;;49.83;22.33;;;5.30;99.90;;;;;;6277317;22;20050;-77
2022/01/16 09:42:41;;;;;;;50.90;21.63;;;5.40;99.90;;;;;;6249753;22;20019;-77
2022/01/16 09:45:10;;;;;;;49.25;21.23;;;5.40;99.90;;;;;;6250090;22;20519;-77
2022/01/16 09:47:36;;;;;;;48.08;21.42;;;5.30;99.90;;;;;;6249620;22;20015;-77
2022/01/16 09:50:07;;;;;;;47.38;21.58;;;5.40;99.90;;;;;;6249896;22;20340;-77
2022/01/16 09:52:41;;;;;;;43.28;19.98;;;5.40;99.90;;;;;;6249623;22;20027;-77
2022/01/16 09:55:07;;;;;;;45.70;20.17;;;5.40;99.90;;;;;;6277219;22;20015;-77
2022/01/16 09:57:33;;;;;;;49.72;22.10;;;5.40;99.90;;;;;;6249321;22;20023;-77
2022/01/16 09:59:59;;;;;;;52.08;21.85;;;5.40;99.90;;;;;;6250250;22;20015;-76
2022/01/16 10:02:25;;;;;;;48.22;22.58;;;5.40;99.90;;;;;;6250182;22;20062;-77
2022/01/16 10:04:53;;;;;;;56.58;23.27;;;5.40;99.90;;;;;;6249194;22;20031;-78
2022/01/16 10:07:19;;;;;;;53.15;25.27;;;5.50;99.90;;;;;;6249806;22;20019;-77
2022/01/16 10:10:05;;;;;;;53.55;25.17;;;5.50;99.90;;;;;;6276881;22;20042;-77
2022/01/16 10:12:32;;;;;;;66.57;25.70;;;5.50;99.90;;;;;;6276532;22;20055;-77
2022/01/16 10:15:24;;;;;;;55.28;24.63;;;5.60;99.90;;;;;;6276666;22;20470;-77
2022/01/16 10:17:53;;;;;;;65.03;28.13;;;5.60;99.90;;;;;;6249298;22;20058;-77
2022/01/16 10:20:19;;;;;;;52.13;23.73;;;5.70;99.90;;;;;;6249357;22;20051;-78
2022/01/16 10:22:52;;;;;;;61.20;24.63;;;5.70;99.90;;;;;;6277249;22;20013;-77
2022/01/16 10:25:38;;;;;;;50.70;23.67;;;5.70;99.90;;;;;;6276937;22;20015;-78
2022/01/16 10:28:18;;;;;;;59.10;24.27;;;5.80;99.90;;;;;;6249457;22;20042;-78
2022/01/16 10:30:46;;;;;;;48.67;23.63;;;5.80;99.90;;;;;;6249309;22;20016;-77
2022/01/16 10:33:14;;;;;;;51.42;24.80;;;5.90;99.90;;;;;;6249664;22;20027;-77
2022/01/16 10:35:43;;;;;;;56.53;24.63;;;5.90;99.90;;;;;;6249248;22;20008;-78
2022/01/16 10:38:15;;;;;;;52.95;23.42;;;5.90;99.90;;;;;;6276732;22;20020;-78
2022/01/16 10:40:41;;;;;;;54.97;24.27;;;5.90;99.90;;;;;;6249349;22;20020;-78
2022/01/16 10:43:13;;;;;;;48.00;22.08;;;6.00;99.90;;;;;;6249572;22;20038;-78
2022/01/16 10:45:39;;;;;;;53.90;24.73;;;6.00;99.90;;;;;;6249127;22;20020;-77
2022/01/16 10:48:05;;;;;;;51.83;22.55;;;6.00;99.90;;;;;;6249322;22;20444;-77
2022/01/16 10:50:33;;;;;;;53.30;25.77;;;6.00;99.90;;;;;;6276084;22;20020;-77
2022/01/16 10:53:07;;;;;;;49.72;23.42;;;6.00;99.90;;;;;;6249535;22;20030;-77
2022/01/16 10:55:52;;;;;;;50.13;22.00;;;6.10;99.90;;;;;;6249031;22;20509;-78
2022/01/16 10:58:26;;;;;;;44.88;20.55;;;6.10;99.90;;;;;;6276327;22;20054;-77
2022/01/16 11:01:04;;;;;;;38.83;20.02;;;6.10;99.90;;;;;;6276822;22;20055;-78
2022/01/16 11:03:48;;;;;;;46.90;21.05;;;6.10;99.90;;;;;;6276800;22;20012;-77
2022/01/16 11:06:18;;;;;;;50.35;19.98;;;6.10;99.90;;;;;;6249292;22;20020;-78
2022/01/16 11:08:52;;;;;;;37.47;19.65;;;6.10;99.90;;;;;;6249450;22;20020;-78
2022/01/16 11:11:20;;;;;;;44.08;19.20;;;6.20;99.90;;;;;;6248999;22;20016;-78
2022/01/16 11:13:45;;;;;;;42.15;19.10;;;6.20;99.90;;;;;;6276410;22;20016;-78
2022/01/16 11:16:12;;;;;;;43.72;19.15;;;6.20;99.90;;;;;;6249788;22;20018;-78
2022/01/16 11:18:40;;;;;;;40.72;18.60;;;6.20;99.90;;;;;;6250822;22;20460;-78
2022/01/16 11:26:22;;;;;;;34.58;16.20;;;6.30;99.90;;;;;;6250804;22;20020;-78
2022/01/16 11:28:50;;;;;;;44.67;17.80;;;6.30;99.90;;;;;;6251393;22;20470;-77
2022/01/16 11:31:17;;;;;;;37.17;16.65;;;6.30;99.90;;;;;;6251317;22;20069;-77
2022/01/16 11:33:44;;;;;;;31.05;15.38;;;6.30;99.90;;;;;;6251064;22;20028;-78
2022/01/16 11:36:14;;;;;;;28.77;15.27;;;6.40;99.90;;;;;;6278492;22;20018;-78
2022/01/16 11:39:00;;;;;;;39.92;16.08;;;6.40;99.90;;;;;;6278555;22;20019;-78
2022/01/16 11:41:34;;;;;;;34.75;14.77;;;6.40;99.90;;;;;;6251239;22;20096;-77
2022/01/16 11:44:03;;;;;;;32.78;14.10;;;6.40;99.90;;;;;;6278743;22;20031;-77
2022/01/16 11:46:31;;;;;;;27.55;13.13;;;6.40;99.90;;;;;;6278201;22;20020;-78
2022/01/16 11:49:00;;;;;;;25.65;14.52;;;6.40;99.90;;;;;;6278535;22;20020;-77
2022/01/16 11:51:35;;;;;;;29.85;12.75;;;6.50;99.90;;;;;;6278224;22;20016;-78
2022/01/16 11:54:13;;;;;;;20.88;11.63;;;6.50;99.90;;;;;;6251135;22;20038;-78
2022/01/16 11:56:41;;;;;;;27.05;11.20;;;6.50;99.90;;;;;;6277734;22;20019;-78
2022/01/16 11:59:25;;;;;;;25.27;10.50;;;6.50;99.90;;;;;;6250739;22;20023;-78
2022/01/16 12:01:55;;;;;;;22.83;10.82;;;6.50;99.90;;;;;;6251432;22;20099;-78
2022/01/16 12:04:30;;;;;;;27.23;10.45;;;6.50;99.90;;;;;;6250631;22;20031;-78
2022/01/16 12:07:12;;;;;;;30.92;11.80;;;6.50;99.90;;;;;;6278418;22;20143;-77
2022/01/16 12:09:48;;;;;;;21.67;9.63;;;6.50;99.90;;;;;;6250627;22;20043;-77
2022/01/16 12:12:13;;;;;;;25.02;10.55;;;6.50;99.90;;;;;;6277036;22;20023;-77
2022/01/16 12:15:08;;;;;;;18.75;10.27;;;6.50;99.90;;;;;;6275990;22;20020;-78
2022/01/16 12:17:47;;;;;;;25.20;11.02;;;6.50;99.90;;;;;;6278363;22;20012;-78
2022/01/16 12:22:55;;;;;;;27.80;9.90;;;6.50;99.90;;;;;;6250809;22;20016;-81
2022/01/16 12:25:40;;;;;;;29.17;11.50;;;6.50;99.90;;;;;;6250854;22;20081;-80
2022/01/16 12:28:08;;;;;;;21.75;10.05;;;6.50;99.90;;;;;;6250529;22;20054;-80
2022/01/16 12:30:35;;;;;;;26.30;10.60;;;6.50;99.90;;;;;;6250609;22;20026;-78
2022/01/16 12:33:16;;;;;;;22.38;9.13;;;6.40;99.90;;;;;;6250730;22;20016;-80
2022/01/16 12:35:46;;;;;;;25.25;11.15;;;6.50;99.90;;;;;;6250761;22;20016;-80
2022/01/16 12:38:16;;;;;;;25.08;10.52;;;6.50;99.90;;;;;;6250548;22;20015;-79
2022/01/16 12:40:47;;;;;;;23.77;10.38;;;6.50;99.90;;;;;;6250441;22;20075;-79
2022/01/16 12:43:32;;;;;;;22.33;10.75;;;6.40;99.90;;;;;;6278068;22;20012;-79
2022/01/16 12:46:03;;;;;;;21.83;10.05;;;6.40;99.90;;;;;;6277654;22;20459;-81
2022/01/16 12:48:30;;;;;;;23.08;9.57;;;6.40;99.90;;;;;;6250585;22;20027;-78
2022/01/16 12:51:15;;;;;;;23.77;9.23;;;6.40;99.90;;;;;;6250601;22;20019;-79
2022/01/16 12:53:45;;;;;;;25.60;9.98;;;6.50;99.90;;;;;;6250471;22;20022;-82
2022/01/16 12:56:34;;;;;;;24.17;11.27;;;6.40;99.90;;;;;;6250504;22;20023;-79
2022/01/16 12:59:27;;;;;;;19.20;10.32;;;6.40;99.90;;;;;;6250127;22;20019;-79
2022/01/16 13:01:53;;;;;;;22.90;9.15;;;6.40;99.90;;;;;;6243979;22;20387;-79
2022/01/16 13:04:26;;;;;;;17.02;10.27;;;6.40;99.90;;;;;;6250053;22;20047;-79
2022/01/16 13:06:53;;;;;;;19.23;9.77;;;6.40;99.90;;;;;;6250506;22;20073;-79
2022/01/16 13:09:20;;;;;;;22.00;10.77;;;6.40;99.90;;;;;;6250247;22;20492;-79
2022/01/16 13:11:49;;;;;;;25.10;9.63;;;6.40;99.90;;;;;;6250360;22;20076;-79
2022/01/16 13:14:17;;;;;;;22.75;10.82;;;6.40;99.90;;;;;;6250225;22;20026;-79
2022/01/16 13:16:45;;;;;;;27.75;10.13;;;6.50;99.90;;;;;;6250366;22;20018;-79
2022/01/16 13:19:16;;;;;;;22.02;9.82;;;6.50;99.90;;;;;;6250180;22;20020;-79
2022/01/16 13:24:32;;;;;;;21.92;9.68;;;6.50;99.90;;;;;;6277725;22;20077;-79
2022/01/16 13:27:00;;;;;;;22.67;10.15;;;6.40;99.90;;;;;;6250202;22;20051;-79
2022/01/16 13:29:26;;;;;;;25.75;10.82;;;6.40;99.90;;;;;;6250303;22;20012;-81
2022/01/16 13:31:52;;;;;;;25.70;10.55;;;6.40;99.90;;;;;;6250129;22;20015;-78
2022/01/16 13:34:44;;;;;;;22.95;9.60;;;6.40;99.90;;;;;;6250121;22;20034;-78
2022/01/16 13:37:15;;;;;;;30.80;10.40;;;6.40;99.90;;;;;;6250093;22;20053;-77
2022/01/16 13:39:42;;;;;;;26.77;10.95;;;6.50;99.90;;;;;;6249643;22;20482;-78